M I D A S
Marine Information and Data Acquisition System
Tripno 1302 of the Zeeleeuw from 2007-07-30 08:39:05 to 2007-07-30 13:44:51
Back to CruiseResearch ActivitiesStationsMapUnderway DataData graphs

EquipmentUnitsComment
TimeDGPSUTC
LatitudeDGPSDM.mWGS84
LongitudeDGPSDM.mWGS84
HeadingGyrodeg 
SOGDGPSknotsSpeed over ground
COGDGPSdegCourse over ground
DepthEcho soundermeters200 kHz
Missing or incorrect values are displayed as -999
Navigation data collected by the RV Zeeleeuw from 2007-07-30 06:59:30 to 2007-07-30 13:56:19
                                                                                    Next 1000 lines
Time Latitude Longitude Heading SOG COG Depth
2007-07-30 06:59:40 51°15.783 2°53.706 339.9 12.1 332 10.1
2007-07-30 06:59:45 51°15.798 2°53.693 340.1 12.1 331 10.1
2007-07-30 06:59:50 51°15.813 2°53.68 339.6 12.2 332 10.1
2007-07-30 06:59:54 51°15.825 2°53.67 339.8 12.1 331 10.1
2007-07-30 07:00:00 51°15.842 2°53.655 339.6 12.1 332 9.9
2007-07-30 07:00:05 51°15.857 2°53.642 339.6 12 332 10
2007-07-30 07:00:10 51°15.871 2°53.63 339.5 12 332 10.1
2007-07-30 07:00:14 51°15.883 2°53.62 340.1 12.1 332 10.5
2007-07-30 07:00:20 51°15.901 2°53.605 340.2 11.9 332 10.2
2007-07-30 07:00:24 51°15.913 2°53.596 340.2 12 332 10.3
2007-07-30 07:00:29 51°15.928 2°53.584 339.9 12 332 10.4
2007-07-30 07:00:34 51°15.943 2°53.571 339.9 12 332 10.2
2007-07-30 07:00:40 51°15.96 2°53.555 339.6 12.1 330 10.5
2007-07-30 07:00:45 51°15.975 2°53.541 338.9 12.2 330 10.6
2007-07-30 07:00:50 51°15.989 2°53.528 338.4 12.2 329 10.7
2007-07-30 07:00:55 51°16.003 2°53.514 337.5 12 329 10.5
2007-07-30 07:01:00 51°16.017 2°53.5 337.7 12 329 10.4
2007-07-30 07:01:05 51°16.032 2°53.487 337.6 12 330 10.4
2007-07-30 07:01:09 51°16.044 2°53.477 337.9 12 330 10.2
2007-07-30 07:01:14 51°16.059 2°53.464 338.3 12.1 330 10.5
2007-07-30 07:01:20 51°16.076 2°53.447 338.4 12.1 329 10.7
2007-07-30 07:01:25 51°16.09 2°53.434 338.4 12.1 330 10.7
2007-07-30 07:01:29 51°16.102 2°53.422 338.3 12.1 329 10.7
2007-07-30 07:01:34 51°16.116 2°53.409 338.2 12.1 329 10.8
2007-07-30 07:01:40 51°16.133 2°53.393 338 12.1 330 10.9
2007-07-30 07:01:45 51°16.148 2°53.379 337.9 12.1 330 10.9
2007-07-30 07:01:50 51°16.162 2°53.366 338.5 12.1 330 10.8
2007-07-30 07:01:54 51°16.174 2°53.355 338.4 12.2 330 10.8
2007-07-30 07:02:00 51°16.191 2°53.339 338.2 12.2 329 10.9
2007-07-30 07:02:05 51°16.206 2°53.325 338.2 12.1 330 10.8
2007-07-30 07:02:10 51°16.22 2°53.312 338.1 12.1 329 10.7
2007-07-30 07:02:14 51°16.232 2°53.301 338.1 12.1 330 10.8
2007-07-30 07:02:20 51°16.249 2°53.285 338.2 12.1 330 11.3
2007-07-30 07:02:25 51°16.264 2°53.272 338.2 12.2 330 11.2
2007-07-30 07:02:30 51°16.278 2°53.259 338.4 12.2 330 10.9
2007-07-30 07:02:34 51°16.29 2°53.248 338.5 12.1 331 10.9
2007-07-30 07:02:40 51°16.307 2°53.232 338.9 12.2 330 10.9
2007-07-30 07:02:44 51°16.319 2°53.222 338.8 12.1 330 11
2007-07-30 07:02:50 51°16.337 2°53.206 338.9 12.2 330 11.2
2007-07-30 07:02:54 51°16.349 2°53.195 338.4 11.8 330 10.9
2007-07-30 07:03:00 51°16.366 2°53.18 338.3 11.8 331 10.7
2007-07-30 07:03:05 51°16.38 2°53.166 338.3 12 330 10.7
2007-07-30 07:03:10 51°16.395 2°53.153 338.2 12 330 11
2007-07-30 07:03:15 51°16.409 2°53.139 338.2 12 330 11.1
2007-07-30 07:03:20 51°16.423 2°53.126 338.1 12 329 11.2
2007-07-30 07:03:25 51°16.437 2°53.112 337.6 12 330 10.9
2007-07-30 07:03:29 51°16.449 2°53.102 337.8 12 331 11
2007-07-30 07:03:34 51°16.464 2°53.089 338.3 12 331 10.7
2007-07-30 07:03:40 51°16.481 2°53.074 338.9 12 332 10.8
2007-07-30 07:03:45 51°16.495 2°53.061 339 12 331 10.8
2007-07-30 07:03:49 51°16.507 2°53.052 339.3 12 332 10.7
2007-07-30 07:03:54 51°16.522 2°53.039 339.5 12.1 333 10.9
2007-07-30 07:04:00 51°16.54 2°53.024 339.4 12 332 10.6
2007-07-30 07:04:05 51°16.555 2°53.011 339.2 12 332 10.6
2007-07-30 07:04:10 51°16.569 2°52.999 339.1 12 331 10.5
2007-07-30 07:04:14 51°16.581 2°52.988 338.7 12 331 10.6
2007-07-30 07:04:20 51°16.599 2°52.973 338.5 11.9 332 10.4
2007-07-30 07:04:25 51°16.614 2°52.961 338.5 11.9 332 10.2
2007-07-30 07:04:30 51°16.628 2°52.948 338.5 11.8 332 10
2007-07-30 07:04:34 51°16.64 2°52.938 338.6 11.8 332 10.4
2007-07-30 07:04:40 51°16.658 2°52.923 338.6 11.9 332 10.3
2007-07-30 07:04:45 51°16.673 2°52.91 338.9 12 332 10.2
2007-07-30 07:04:49 51°16.685 2°52.9 338.3 12 331 10.2
2007-07-30 07:04:54 51°16.699 2°52.888 338.4 12 332 10.3
2007-07-30 07:05:00 51°16.717 2°52.873 338.2 11.9 332 10.2
2007-07-30 07:05:05 51°16.731 2°52.86 338.2 12 332 9.9
2007-07-30 07:05:10 51°16.746 2°52.847 338.2 11.9 331 9.6
2007-07-30 07:05:14 51°16.758 2°52.837 338.2 11.8 331 9.3
2007-07-30 07:05:20 51°16.775 2°52.822 337.8 11.8 331 8.9
2007-07-30 07:05:25 51°16.789 2°52.809 338.1 11.7 331 8.6
2007-07-30 07:05:30 51°16.803 2°52.797 338.2 11.6 331 8.4
2007-07-30 07:05:35 51°16.818 2°52.784 337.9 11.6 331 8.6
2007-07-30 07:05:40 51°16.832 2°52.772 337.7 11.7 331 8.8
2007-07-30 07:05:45 51°16.846 2°52.761 338.9 11.7 334 8.6
2007-07-30 07:05:49 51°16.858 2°52.752 340.1 11.7 334 8.7
2007-07-30 07:05:54 51°16.873 2°52.741 341.5 11.5 336 8.6
2007-07-30 07:06:00 51°16.89 2°52.729 342.5 11.5 336 8.3
2007-07-30 07:06:05 51°16.905 2°52.719 343.6 11.6 338 8.5
2007-07-30 07:06:09 51°16.917 2°52.712 344 11.7 338 8.7
2007-07-30 07:06:14 51°16.932 2°52.703 345 11.7 340 8.8
2007-07-30 07:06:20 51°16.951 2°52.693 347 11.7 342 8.9
2007-07-30 07:06:25 51°16.966 2°52.686 348.6 11.6 343 9
2007-07-30 07:06:30 51°16.982 2°52.678 349.9 11.7 344 9.3
2007-07-30 07:06:34 51°16.994 2°52.673 350.2 11.6 344 9.2
2007-07-30 07:06:40 51°17.013 2°52.664 350.6 11.5 344 8.8
2007-07-30 07:06:45 51°17.028 2°52.658 351 11.6 344 9.2
2007-07-30 07:06:50 51°17.043 2°52.651 351 11.4 345 8.7
2007-07-30 07:06:54 51°17.056 2°52.646 351.4 11.3 346 8.6
2007-07-30 07:07:00 51°17.074 2°52.638 351.6 11.4 345 8.7
2007-07-30 07:07:05 51°17.09 2°52.631 351.9 11.5 344 8.8
2007-07-30 07:07:09 51°17.102 2°52.626 351.2 11.4 344 8.7
2007-07-30 07:07:14 51°17.117 2°52.619 351.2 11.5 344 8.9
2007-07-30 07:07:20 51°17.135 2°52.611 351 11.5 344 8.9
2007-07-30 07:07:25 51°17.151 2°52.603 350.9 11.5 344 8.9
2007-07-30 07:07:30 51°17.166 2°52.596 350.3 11.5 343 8.9
2007-07-30 07:07:35 51°17.182 2°52.59 350 11.6 344 9
2007-07-30 07:07:40 51°17.197 2°52.583 350 11.6 343 9.1
2007-07-30 07:07:45 51°17.213 2°52.575 350.1 11.5 343 8.8
2007-07-30 07:07:49 51°17.225 2°52.569 349.8 11.5 342 8.9
2007-07-30 07:07:54 51°17.24 2°52.561 349.9 11.6 343 9.2
2007-07-30 07:08:00 51°17.259 2°52.553 350.2 11.5 343 9.1
2007-07-30 07:08:05 51°17.274 2°52.545 350.1 11.6 343 9.1
2007-07-30 07:08:09 51°17.286 2°52.539 350.1 11.6 343 9.4
2007-07-30 07:08:14 51°17.302 2°52.532 350.5 11.6 345 9.3
2007-07-30 07:08:20 51°17.32 2°52.524 350.5 11.5 344 9.3
2007-07-30 07:08:25 51°17.336 2°52.52 353.3 11.4 352 9.3
2007-07-30 07:08:30 51°17.351 2°52.517 357.2 11.5 353 9.3
2007-07-30 07:08:34 51°17.364 2°52.516 0.6 11.3 357 9.2
2007-07-30 07:08:40 51°17.383 2°52.515 2.9 11.3 358 9.4
2007-07-30 07:08:45 51°17.398 2°52.515 4.8 11.4 -999 9.5
2007-07-30 07:08:50 51°17.414 2°52.516 5.9 11.3 2 9.6
2007-07-30 07:08:54 51°17.427 2°52.516 6.8 11.3 2 9.5
2007-07-30 07:09:00 51°17.445 2°52.518 7.7 11.2 4 9.4
2007-07-30 07:09:05 51°17.461 2°52.519 8.6 11.3 3 9.2
2007-07-30 07:09:10 51°17.477 2°52.521 8.3 11.3 4 9.7
2007-07-30 07:09:14 51°17.489 2°52.521 8.2 11.3 2 9.6
2007-07-30 07:09:20 51°17.508 2°52.523 8.5 11.3 3 9.6
2007-07-30 07:09:25 51°17.524 2°52.524 7.9 11.3 1 9.7
2007-07-30 07:09:29 51°17.536 2°52.525 7.5 11.2 1 9.4
2007-07-30 07:09:34 51°17.552 2°52.526 7.5 11.2 3 9.4
2007-07-30 07:09:40 51°17.571 2°52.527 7.6 11.3 2 9.4
2007-07-30 07:09:45 51°17.587 2°52.527 7.4 11.3 2 9.4
2007-07-30 07:09:50 51°17.602 2°52.528 7.7 11.2 2 9.1
2007-07-30 07:09:55 51°17.618 2°52.53 7.8 11.3 2 9.4
2007-07-30 07:10:00 51°17.634 2°52.53 8.1 11.4 1 9.4
2007-07-30 07:10:05 51°17.649 2°52.532 7.6 11.4 3 9.4
2007-07-30 07:10:09 51°17.662 2°52.532 7.4 11.4 1 9.8
2007-07-30 07:10:14 51°17.678 2°52.533 7 11.2 1 9.6
2007-07-30 07:10:20 51°17.697 2°52.533 7.2 11.3 1 9.6
2007-07-30 07:10:25 51°17.712 2°52.534 6.8 11.2 2 9.2
2007-07-30 07:10:29 51°17.724 2°52.534 7 11.3 1 9.4
2007-07-30 07:10:34 51°17.74 2°52.535 6.6 11.4 2 9.7
2007-07-30 07:10:40 51°17.759 2°52.536 7.7 11.1 2 9.6
2007-07-30 07:10:45 51°17.774 2°52.536 7 11.1 2 9.4
2007-07-30 07:10:50 51°17.79 2°52.537 7.9 11.2 1 9.3
2007-07-30 07:10:55 51°17.806 2°52.538 7.5 11.3 2 9.2
2007-07-30 07:11:00 51°17.821 2°52.539 7.5 11.2 2 9.4
2007-07-30 07:11:05 51°17.837 2°52.539 7.2 11.1 1 9.3
2007-07-30 07:11:10 51°17.852 2°52.54 7.7 11 2 9.3
2007-07-30 07:11:14 51°17.865 2°52.542 9 11 5 9.1
2007-07-30 07:11:20 51°17.883 2°52.545 10.7 11.1 5 9.3
2007-07-30 07:11:25 51°17.898 2°52.548 11 11.2 8 9.5
2007-07-30 07:11:30 51°17.914 2°52.551 11.7 11.1 7 9.9
2007-07-30 07:11:34 51°17.926 2°52.554 12.6 11.2 9 10.2
2007-07-30 07:11:40 51°17.944 2°52.557 12.6 11.1 6 9.7
2007-07-30 07:11:45 51°17.959 2°52.561 12.3 11.1 9 9.9
2007-07-30 07:11:50 51°17.975 2°52.566 14.4 11.3 12 9.7
2007-07-30 07:11:54 51°17.986 2°52.571 16.7 11.2 16 10.2
2007-07-30 07:12:00 51°18.004 2°52.581 19.8 11 20 9.5
2007-07-30 07:12:05 51°18.018 2°52.591 23.6 10.9 22 9.6
2007-07-30 07:12:10 51°18.031 2°52.603 28.6 11 29 9.9
2007-07-30 07:12:15 51°18.044 2°52.615 31.2 11 32 9.6
2007-07-30 07:12:20 51°18.057 2°52.629 34.8 11.1 34 10.1
2007-07-30 07:12:25 51°18.069 2°52.644 36.9 11 38 10
2007-07-30 07:12:29 51°18.078 2°52.657 39.4 11 38 9.7
2007-07-30 07:12:34 51°18.09 2°52.672 40.4 11.1 40 9.7
2007-07-30 07:12:40 51°18.105 2°52.691 42 11.2 38 10
2007-07-30 07:12:45 51°18.117 2°52.708 42 11.4 40 10.2
2007-07-30 07:12:49 51°18.127 2°52.72 42 11.2 39 9.9
2007-07-30 07:12:54 51°18.139 2°52.736 42 11.2 40 9.8
2007-07-30 07:13:00 51°18.153 2°52.756 42 11.3 42 9.8
2007-07-30 07:13:05 51°18.165 2°52.771 42.8 11.5 38 10.3
2007-07-30 07:13:10 51°18.177 2°52.788 41 11.4 42 10.1
2007-07-30 07:13:14 51°18.186 2°52.801 41.9 11.3 41 10.1
2007-07-30 07:13:20 51°18.199 2°52.823 45.5 11.2 49 10
2007-07-30 07:13:25 51°18.208 2°52.843 51.5 11.1 54 10.3
2007-07-30 07:13:30 51°18.216 2°52.863 54.2 11.1 57 9.9
2007-07-30 07:13:34 51°18.223 2°52.881 57 11.4 58 9.9
2007-07-30 07:13:40 51°18.232 2°52.907 58.1 11.3 62 10.2
2007-07-30 07:13:45 51°18.239 2°52.929 61.6 11.4 64 10
2007-07-30 07:13:49 51°18.246 2°52.947 62.4 11.5 62 9.8
2007-07-30 07:13:54 51°18.253 2°52.97 62 11.5 62 10.3
2007-07-30 07:14:00 51°18.261 2°52.998 63.1 11.5 67 10.1
2007-07-30 07:14:05 51°18.268 2°53.02 64.1 11.5 62 9.8
2007-07-30 07:14:10 51°18.275 2°53.044 63.4 11.6 64 10.1
2007-07-30 07:14:15 51°18.283 2°53.066 63.3 11.4 62 10.1
2007-07-30 07:14:20 51°18.29 2°53.089 63.1 11.5 64 10.1
2007-07-30 07:14:25 51°18.297 2°53.112 62.8 11.6 63 9.9
2007-07-30 07:14:30 51°18.305 2°53.134 62.2 11.5 60 10.1
2007-07-30 07:14:34 51°18.312 2°53.152 61.3 11.3 61 9.7
2007-07-30 07:14:40 51°18.32 2°53.179 62.4 11.4 64 10.1
2007-07-30 07:14:45 51°18.327 2°53.201 62.7 11.5 62 10.2
2007-07-30 07:14:49 51°18.333 2°53.22 62.9 11.4 65 10.1
2007-07-30 07:14:54 51°18.34 2°53.243 64.5 11.5 62 10.4
2007-07-30 07:15:00 51°18.349 2°53.27 62.7 11.6 62 10.2
2007-07-30 07:15:05 51°18.357 2°53.292 61.7 11.6 63 10.2
2007-07-30 07:15:10 51°18.364 2°53.315 62.3 11.4 65 10.3
2007-07-30 07:15:14 51°18.369 2°53.333 64.4 11.5 63 10.2
2007-07-30 07:15:20 51°18.377 2°53.361 64.3 11.6 66 10.4
2007-07-30 07:15:25 51°18.384 2°53.384 64.9 11.4 64 10.1
2007-07-30 07:15:30 51°18.391 2°53.407 65.1 11.5 65 10.3
2007-07-30 07:15:35 51°18.398 2°53.43 65.8 11.5 64 10.5
2007-07-30 07:15:40 51°18.404 2°53.453 64.4 11.4 66 9.8
2007-07-30 07:15:45 51°18.411 2°53.476 65.4 11.5 65 10.2
2007-07-30 07:15:50 51°18.417 2°53.499 65.4 11.4 65 10
2007-07-30 07:15:54 51°18.423 2°53.517 64.7 11.3 63 10.1
2007-07-30 07:16:00 51°18.431 2°53.544 64.6 11.5 65 10.1
2007-07-30 07:16:05 51°18.438 2°53.567 64.5 11.5 64 10.2
2007-07-30 07:16:09 51°18.443 2°53.586 64.9 11.4 62 10.2
2007-07-30 07:16:14 51°18.45 2°53.609 63.9 11.4 69 10.1
2007-07-30 07:16:20 51°18.46 2°53.635 65.1 11.4 59 10.3
2007-07-30 07:16:25 51°18.465 2°53.659 63.1 11.6 68 10.1
2007-07-30 07:16:30 51°18.473 2°53.681 63.6 11.4 61 10.1
2007-07-30 07:16:35 51°18.48 2°53.704 63.8 11.5 66 10.5
2007-07-30 07:16:40 51°18.487 2°53.725 63.8 11.2 60 10.3
2007-07-30 07:16:45 51°18.495 2°53.747 60.9 11.3 64 9.7
2007-07-30 07:16:50 51°18.503 2°53.768 61.6 11.2 59 9.9
2007-07-30 07:16:54 51°18.508 2°53.787 61.7 11.4 64 10.3
2007-07-30 07:17:00 51°18.517 2°53.814 63.6 11.4 63 10.4
2007-07-30 07:17:05 51°18.523 2°53.838 64.4 11.5 68 10.4
2007-07-30 07:17:10 51°18.531 2°53.859 64.7 11.3 62 10.7
2007-07-30 07:17:14 51°18.535 2°53.879 65.8 11.4 67 10.6
2007-07-30 07:17:20 51°18.544 2°53.905 65.1 11.4 61 10.5
2007-07-30 07:17:25 51°18.55 2°53.928 63.6 11.4 67 10
2007-07-30 07:17:30 51°18.559 2°53.949 63.5 11.2 59 10.4
2007-07-30 07:17:34 51°18.563 2°53.968 64.2 11.3 68 10.4
2007-07-30 07:17:40 51°18.572 2°53.994 64.1 11.3 60 10.5
2007-07-30 07:17:45 51°18.578 2°54.017 63.1 11.3 66 10.4
2007-07-30 07:17:50 51°18.585 2°54.04 64.8 11.3 64 10.5
2007-07-30 07:17:54 51°18.589 2°54.059 66.6 11.6 68 10.4
2007-07-30 07:18:00 51°18.598 2°54.086 66 11.4 64 10.5
2007-07-30 07:18:05 51°18.603 2°54.11 67.9 11.5 70 10.2
2007-07-30 07:18:10 51°18.609 2°54.134 68.2 11.5 68 10.5
2007-07-30 07:18:14 51°18.614 2°54.153 68.4 11.3 70 10.2
2007-07-30 07:18:20 51°18.621 2°54.18 68 11.4 68 10.2
2007-07-30 07:18:25 51°18.627 2°54.204 68.1 11.2 68 10.3
2007-07-30 07:18:30 51°18.632 2°54.227 68.8 11.4 71 10.2
2007-07-30 07:18:34 51°18.638 2°54.245 67.8 11.3 65 10.1
2007-07-30 07:18:40 51°18.643 2°54.275 69.3 11.5 73 10.4
2007-07-30 07:18:45 51°18.651 2°54.297 69 11.5 63 10.4
2007-07-30 07:18:50 51°18.655 2°54.321 67.7 11.4 73 10.3
2007-07-30 07:18:55 51°18.662 2°54.344 69.1 11.4 64 10.3
2007-07-30 07:19:00 51°18.667 2°54.368 68.3 11.5 71 10.3
2007-07-30 07:19:05 51°18.673 2°54.391 69.5 11.3 68 10.4
2007-07-30 07:19:10 51°18.679 2°54.415 67.7 11.4 69 10.4
2007-07-30 07:19:14 51°18.683 2°54.434 69.5 11.4 67 10.4
2007-07-30 07:19:20 51°18.69 2°54.462 68.3 11.5 71 10.2
2007-07-30 07:19:25 51°18.696 2°54.486 69.2 11.5 67 10.2
2007-07-30 07:19:29 51°18.701 2°54.504 67.7 11.4 67 10.4
2007-07-30 07:19:34 51°18.706 2°54.528 68.6 11.4 72 10.2
2007-07-30 07:19:40 51°18.714 2°54.555 69.6 11.5 64 10.1
2007-07-30 07:19:45 51°18.72 2°54.579 67.6 11.4 69 10.2
2007-07-30 07:19:50 51°18.726 2°54.603 68.2 11.5 69 10.3
2007-07-30 07:19:55 51°18.732 2°54.627 68.2 11.6 70 10.2
2007-07-30 07:20:00 51°18.738 2°54.65 69.5 11.5 66 10.3
2007-07-30 07:20:05 51°18.743 2°54.674 68.5 11.5 72 10.1
2007-07-30 07:20:10 51°18.75 2°54.697 68.9 11.4 64 10.2
2007-07-30 07:20:14 51°18.754 2°54.717 68.4 11.5 68 10.3
2007-07-30 07:20:20 51°18.761 2°54.745 69.4 11.6 67 10.2
2007-07-30 07:20:25 51°18.768 2°54.768 66.7 11.6 66 10.5
2007-07-30 07:20:29 51°18.772 2°54.787 66.8 11.4 69 10.1
2007-07-30 07:20:34 51°18.78 2°54.809 66.8 11.3 66 10
2007-07-30 07:20:40 51°18.787 2°54.837 67.2 11.3 65 10
2007-07-30 07:20:45 51°18.792 2°54.861 68.1 11.4 71 10.1
2007-07-30 07:20:50 51°18.799 2°54.884 67.5 11.4 65 10.1
2007-07-30 07:20:54 51°18.804 2°54.903 67.5 11.5 69 10.1
2007-07-30 07:21:00 51°18.811 2°54.931 67.8 11.4 65 10.4
2007-07-30 07:21:05 51°18.817 2°54.954 67.3 11.4 69 10.5
2007-07-30 07:21:10 51°18.824 2°54.977 67.4 11.4 65 10.4
2007-07-30 07:21:15 51°18.83 2°55.001 66.9 11.4 69 10.2
2007-07-30 07:21:20 51°18.835 2°55.024 67.9 11.4 69 10.4
2007-07-30 07:21:25 51°18.842 2°55.048 68.2 11.5 68 10.3
2007-07-30 07:21:30 51°18.848 2°55.071 68.2 11.6 67 10.2
2007-07-30 07:21:34 51°18.853 2°55.089 66.6 11.5 67 10.5
2007-07-30 07:21:40 51°18.86 2°55.117 66.8 11.2 70 10.1
2007-07-30 07:21:45 51°18.865 2°55.141 69.7 11.4 69 10.1
2007-07-30 07:21:50 51°18.871 2°55.165 68.4 11.4 70 10.1
2007-07-30 07:21:54 51°18.875 2°55.184 69.6 11.3 70 10.1
2007-07-30 07:22:00 51°18.882 2°55.212 70.5 11.5 70 10.1
2007-07-30 07:22:05 51°18.887 2°55.236 69.5 11.3 70 10.3
2007-07-30 07:22:10 51°18.893 2°55.259 69.7 11.3 70 10.1
2007-07-30 07:22:14 51°18.896 2°55.279 70.8 11.5 71 10.3
2007-07-30 07:22:20 51°18.903 2°55.307 69.8 11.5 71 10.2
2007-07-30 07:22:25 51°18.909 2°55.331 70.4 11.4 70 10.1
2007-07-30 07:22:30 51°18.914 2°55.355 69.6 11.4 70 10.1
2007-07-30 07:22:34 51°18.918 2°55.374 70.5 11.5 71 10.1
2007-07-30 07:22:40 51°18.925 2°55.402 70.9 11.4 67 10.3
2007-07-30 07:22:45 51°18.929 2°55.427 70.8 11.4 74 10.4
2007-07-30 07:22:49 51°18.935 2°55.445 69.1 11.4 70 10.1
2007-07-30 07:22:54 51°18.939 2°55.47 71.3 11.5 71 9.9
2007-07-30 07:23:00 51°18.946 2°55.498 69.5 11.4 68 10
2007-07-30 07:23:05 51°18.952 2°55.522 70 11.4 70 10
2007-07-30 07:23:10 51°18.958 2°55.545 69.8 11.5 67 10.1
2007-07-30 07:23:15 51°18.963 2°55.569 69.1 11.4 69 10.2
2007-07-30 07:23:20 51°18.968 2°55.593 70 11.5 72 10.1
2007-07-30 07:23:25 51°18.975 2°55.616 69.1 11.5 66 9.9
2007-07-30 07:23:30 51°18.98 2°55.641 68.6 11.6 72 10
2007-07-30 07:23:34 51°18.985 2°55.659 69.9 11.5 68 10.1
2007-07-30 07:23:40 51°18.992 2°55.688 68.8 11.5 69 9.9
2007-07-30 07:23:45 51°18.997 2°55.711 68.4 11.3 68 9.9
2007-07-30 07:23:50 51°19.002 2°55.735 69.3 11.3 72 9.9
2007-07-30 07:23:54 51°19.007 2°55.754 70 11.4 70 9.6
2007-07-30 07:24:00 51°19.014 2°55.782 70.6 11.4 69 9.9
2007-07-30 07:24:05 51°19.019 2°55.806 69.3 11.5 68 9.8
2007-07-30 07:24:10 51°19.025 2°55.829 68.3 11.3 69 9.8
2007-07-30 07:24:15 51°19.03 2°55.853 69.8 11.3 72 9.8
2007-07-30 07:24:20 51°19.036 2°55.876 69.9 11.4 69 9.7
2007-07-30 07:24:25 51°19.041 2°55.9 68.9 11.3 68 9.9
2007-07-30 07:24:30 51°19.047 2°55.923 69.2 11.1 71 9.9
2007-07-30 07:24:34 51°19.051 2°55.941 69.5 11.2 71 9.5
2007-07-30 07:24:40 51°19.058 2°55.969 69.6 11.1 68 9.6
2007-07-30 07:24:45 51°19.062 2°55.993 70.4 11.1 70 9.8
2007-07-30 07:24:50 51°19.068 2°56.016 69.8 11 70 9.8
2007-07-30 07:24:54 51°19.072 2°56.034 70 11.2 69 9.8
2007-07-30 07:25:00 51°19.078 2°56.063 70.1 11.2 71 9.8
2007-07-30 07:25:05 51°19.084 2°56.085 68.5 11.1 69 9.9
2007-07-30 07:25:10 51°19.09 2°56.108 68.8 11.1 68 9.8
2007-07-30 07:25:14 51°19.093 2°56.127 69.7 11.1 71 10
2007-07-30 07:25:20 51°19.101 2°56.154 68.9 11.2 70 9.7
2007-07-30 07:25:25 51°19.106 2°56.178 70 11.4 68 10
2007-07-30 07:25:30 51°19.112 2°56.201 67.8 11.1 68 10
2007-07-30 07:25:35 51°19.117 2°56.224 69.6 11 70 9.8
2007-07-30 07:25:40 51°19.124 2°56.246 68.1 11.1 66 9.8
2007-07-30 07:25:45 51°19.129 2°56.269 68 11.1 67 9.8
2007-07-30 07:25:50 51°19.135 2°56.292 67.5 11 68 9.6
2007-07-30 07:25:54 51°19.139 2°56.31 68.9 11.1 67 9.9
2007-07-30 07:26:00 51°19.146 2°56.338 68.9 11.2 69 9.7
2007-07-30 07:26:05 51°19.152 2°56.361 68.9 11.2 68 9.7
2007-07-30 07:26:09 51°19.157 2°56.379 68.2 11.2 68 9.8
2007-07-30 07:26:14 51°19.162 2°56.402 68.9 11.3 67 10.3
2007-07-30 07:26:20 51°19.17 2°56.43 68.7 11.4 70 10.2
2007-07-30 07:26:25 51°19.176 2°56.453 68 11.2 66 9.8
2007-07-30 07:26:30 51°19.181 2°56.476 69.1 11.1 69 9.9
2007-07-30 07:26:35 51°19.187 2°56.499 68.8 11.2 67 9.9
2007-07-30 07:26:40 51°19.193 2°56.522 68.2 11.2 70 9.9
2007-07-30 07:26:45 51°19.199 2°56.545 70.1 11.2 66 9.8
2007-07-30 07:26:50 51°19.204 2°56.568 68.3 11.3 73 9.8
2007-07-30 07:26:54 51°19.209 2°56.586 69.7 11.1 65 9.9
2007-07-30 07:27:00 51°19.214 2°56.615 70.2 11.2 74 9.9
2007-07-30 07:27:05 51°19.221 2°56.637 70.8 11.2 65 9.9
2007-07-30 07:27:09 51°19.225 2°56.656 69.9 11.3 71 9.8
2007-07-30 07:27:14 51°19.231 2°56.679 69.2 11.1 65 9.8
2007-07-30 07:27:20 51°19.237 2°56.706 68.8 11 72 9.6
2007-07-30 07:27:25 51°19.242 2°56.73 71.5 11.2 69 9.6
2007-07-30 07:27:30 51°19.248 2°56.752 70.5 11.1 69 9.3
2007-07-30 07:27:35 51°19.254 2°56.775 68.8 10.9 69 9.4
2007-07-30 07:27:40 51°19.258 2°56.798 70.6 11 71 9.5
2007-07-30 07:27:45 51°19.264 2°56.821 71.1 11.1 69 9.5
2007-07-30 07:27:50 51°19.27 2°56.844 69.8 11 70 9.4
2007-07-30 07:27:54 51°19.274 2°56.862 70.1 11 69 9.4
2007-07-30 07:28:00 51°19.281 2°56.889 70.4 11.1 67 9.6
2007-07-30 07:28:05 51°19.286 2°56.913 70 11.1 72 9.5
2007-07-30 07:28:10 51°19.292 2°56.935 70.7 11 70 9.3
2007-07-30 07:28:14 51°19.296 2°56.954 70.4 11.2 67 9.3
2007-07-30 07:28:20 51°19.301 2°56.982 71.5 11.3 72 9.6
2007-07-30 07:28:25 51°19.308 2°57.004 69.6 10.9 67 9.4
2007-07-30 07:28:30 51°19.311 2°57.028 71.7 11.2 75 9.4
2007-07-30 07:28:35 51°19.318 2°57.05 71.7 11 66 9.5
2007-07-30 07:28:40 51°19.321 2°57.075 71.1 11.3 76 9.6
2007-07-30 07:28:45 51°19.328 2°57.097 72.1 11.2 67 9.2
2007-07-30 07:28:50 51°19.332 2°57.12 70.2 11 71 9.4
2007-07-30 07:28:55 51°19.338 2°57.143 71.2 11.1 68 9.5
2007-07-30 07:29:00 51°19.344 2°57.166 70.1 11.1 67 9.4
2007-07-30 07:29:05 51°19.349 2°57.189 70.2 11.1 70 9.4
2007-07-30 07:29:10 51°19.355 2°57.212 70.9 11.1 69 9.4
2007-07-30 07:29:14 51°19.358 2°57.231 71.1 11.1 69 9.4
2007-07-30 07:29:20 51°19.365 2°57.258 70 11 68 9.3
2007-07-30 07:29:25 51°19.37 2°57.281 70.1 11 71 9.1
2007-07-30 07:29:30 51°19.376 2°57.304 71.7 11.1 68 9.3
2007-07-30 07:29:34 51°19.379 2°57.323 71 11.2 72 9.3
2007-07-30 07:29:40 51°19.387 2°57.35 71.3 11.1 66 9.4
2007-07-30 07:29:45 51°19.391 2°57.375 71.1 11.3 74 9.4
2007-07-30 07:29:50 51°19.398 2°57.396 70.7 11 65 9.2
2007-07-30 07:29:55 51°19.401 2°57.42 71.5 11 72 9.3
2007-07-30 07:30:00 51°19.409 2°57.442 70.2 11.1 67 9.1
2007-07-30 07:30:05 51°19.413 2°57.465 70.7 11.1 68 9.1
2007-07-30 07:30:10 51°19.419 2°57.489 69.8 11.1 71 9.3
2007-07-30 07:30:14 51°19.424 2°57.507 70.4 11 69 9.2
2007-07-30 07:30:20 51°19.43 2°57.535 72.1 11.1 69 9.4
2007-07-30 07:30:25 51°19.435 2°57.558 71.1 11 72 9.4
2007-07-30 07:30:30 51°19.44 2°57.581 71.1 11.1 71 9.3
2007-07-30 07:30:34 51°19.444 2°57.599 71.3 11 66 9.4
2007-07-30 07:30:40 51°19.451 2°57.626 68.8 10.9 70 9.1
2007-07-30 07:30:45 51°19.457 2°57.648 70.5 11 68 9.3
2007-07-30 07:30:50 51°19.462 2°57.671 70.6 11 69 9.2
2007-07-30 07:30:55 51°19.468 2°57.694 70.3 11 71 9
2007-07-30 07:31:00 51°19.473 2°57.717 71.1 11.1 68 9.2
2007-07-30 07:31:05 51°19.479 2°57.74 71.1 11 69 9.2
2007-07-30 07:31:10 51°19.484 2°57.762 70.3 11 69 9
2007-07-30 07:31:14 51°19.488 2°57.781 70.4 11 67 9.2
2007-07-30 07:31:20 51°19.495 2°57.808 69.5 11.1 70 9
2007-07-30 07:31:25 51°19.501 2°57.831 70.4 11.1 66 9.1
2007-07-30 07:31:30 51°19.507 2°57.854 69.5 11.1 69 9.3
2007-07-30 07:31:34 51°19.512 2°57.872 70.4 11 67 9.3
2007-07-30 07:31:40 51°19.518 2°57.899 70.4 11 70 9
2007-07-30 07:31:45 51°19.524 2°57.922 70.7 11.1 68 8.9
2007-07-30 07:31:50 51°19.529 2°57.946 70.6 11.2 68 9
2007-07-30 07:31:55 51°19.535 2°57.969 71.2 11.1 67 9.1
2007-07-30 07:31:59 51°19.539 2°57.987 70 11.1 71 8.8
2007-07-30 07:32:05 51°19.546 2°58.015 70.9 11.2 67 8.9
2007-07-30 07:32:10 51°19.551 2°58.038 70.4 11.2 70 8.9
2007-07-30 07:32:14 51°19.556 2°58.056 70.4 11.1 69 9.1
2007-07-30 07:32:20 51°19.563 2°58.083 70.3 10.9 67 9.1
2007-07-30 07:32:25 51°19.569 2°58.106 70.2 11 69 9
2007-07-30 07:32:30 51°19.575 2°58.129 69.3 11.1 69 8.8
2007-07-30 07:32:34 51°19.578 2°58.148 71.4 11.1 69 9
2007-07-30 07:32:40 51°19.585 2°58.175 70.2 11 71 8.9
2007-07-30 07:32:45 51°19.59 2°58.198 71.3 11 67 9
2007-07-30 07:32:50 51°19.595 2°58.221 71.8 11.2 72 9.2
2007-07-30 07:32:54 51°19.6 2°58.239 71.2 11.2 66 9.1
2007-07-30 07:33:00 51°19.605 2°58.267 70.1 11.1 76 9.2
2007-07-30 07:33:05 51°19.612 2°58.289 71.8 10.9 65 8.9
2007-07-30 07:33:10 51°19.617 2°58.312 70.4 11.1 71 9.1
2007-07-30 07:33:15 51°19.623 2°58.335 70.4 11.1 67 9
2007-07-30 07:33:20 51°19.629 2°58.358 70.1 11.1 69 9
2007-07-30 07:33:25 51°19.634 2°58.38 70.4 11.1 68 8.9
2007-07-30 07:33:29 51°19.639 2°58.398 69.2 11 67 9
2007-07-30 07:33:34 51°19.644 2°58.421 69.3 11.1 67 9.2
2007-07-30 07:33:40 51°19.651 2°58.449 69 11.2 71 9.1
2007-07-30 07:33:45 51°19.659 2°58.47 69.6 10.9 63 9.1
2007-07-30 07:33:50 51°19.662 2°58.495 69.6 11.3 73 9.2
2007-07-30 07:33:54 51°19.669 2°58.512 69.1 11.2 60 9
2007-07-30 07:34:00 51°19.675 2°58.539 66.6 11 71 9.1
2007-07-30 07:34:05 51°19.682 2°58.561 70.8 11.1 65 9
2007-07-30 07:34:10 51°19.688 2°58.584 68.6 11.1 68 9.2
2007-07-30 07:34:15 51°19.694 2°58.606 68.3 11 65 8.9
2007-07-30 07:34:20 51°19.7 2°58.629 67.8 11.2 70 9
2007-07-30 07:34:25 51°19.706 2°58.651 69.5 11 67 9
2007-07-30 07:34:30 51°19.71 2°58.674 69.9 10.9 73 8.9
2007-07-30 07:34:34 51°19.714 2°58.692 72.1 11 72 9
2007-07-30 07:34:40 51°19.72 2°58.72 73.5 11.1 72 8.8
2007-07-30 07:34:45 51°19.725 2°58.743 71.8 11 70 8.9
2007-07-30 07:34:50 51°19.729 2°58.766 72.9 10.8 73 9
2007-07-30 07:34:54 51°19.732 2°58.785 74.8 11 74 8.9
2007-07-30 07:35:00 51°19.737 2°58.813 74.3 11.1 75 8.9
2007-07-30 07:35:05 51°19.742 2°58.837 74.3 11.2 71 8.8
2007-07-30 07:35:10 51°19.747 2°58.86 73.7 11 69 9
2007-07-30 07:35:14 51°19.752 2°58.878 71.8 10.9 72 9.1
2007-07-30 07:35:20 51°19.756 2°58.906 73.2 11.1 73 8.9
2007-07-30 07:35:25 51°19.761 2°58.93 72.8 11.1 74 8.7
2007-07-30 07:35:30 51°19.766 2°58.953 73.3 10.9 74 8.8
2007-07-30 07:35:35 51°19.769 2°58.977 76.3 11.2 76 8.7
2007-07-30 07:35:40 51°19.775 2°59 74 10.9 69 8.7
2007-07-30 07:35:45 51°19.777 2°59.024 73.5 11.2 80 8.8
2007-07-30 07:35:49 51°19.782 2°59.042 75.8 11.2 69 8.8
2007-07-30 07:35:54 51°19.786 2°59.066 73.4 11 77 8.8
2007-07-30 07:36:00 51°19.791 2°59.093 75.2 10.9 71 8.9
2007-07-30 07:36:05 51°19.796 2°59.117 73.7 11 74 8.7
2007-07-30 07:36:10 51°19.801 2°59.139 73.4 10.9 69 8.8
2007-07-30 07:36:14 51°19.804 2°59.158 72.8 10.9 77 8.6
2007-07-30 07:36:20 51°19.81 2°59.186 75 11 68 8.8
2007-07-30 07:36:25 51°19.813 2°59.209 72.7 10.9 76 8.8
2007-07-30 07:36:30 51°19.818 2°59.232 73.8 10.8 75 8.7
2007-07-30 07:36:35 51°19.822 2°59.255 76 10.8 71 8.7
2007-07-30 07:36:40 51°19.827 2°59.278 73.3 11 74 8.7
2007-07-30 07:36:45 51°19.832 2°59.301 73.4 10.9 73 8.7
2007-07-30 07:36:50 51°19.837 2°59.324 73.1 10.9 70 8.6
2007-07-30 07:36:54 51°19.839 2°59.343 74.1 11 75 8.7
2007-07-30 07:37:00 51°19.846 2°59.37 73.3 10.9 70 8.7
2007-07-30 07:37:05 51°19.85 2°59.393 73.2 10.9 72 8.6
2007-07-30 07:37:10 51°19.856 2°59.416 73.4 11 69 8.7
2007-07-30 07:37:14 51°19.86 2°59.434 71.7 10.8 70 8.9
2007-07-30 07:37:20 51°19.865 2°59.462 73.3 11 72 8.8
2007-07-30 07:37:25 51°19.87 2°59.486 73.7 11.2 71 8.8
2007-07-30 07:37:30 51°19.876 2°59.508 71.2 10.8 68 8.7
2007-07-30 07:37:35 51°19.88 2°59.531 73.1 10.8 73 8.6
2007-07-30 07:37:40 51°19.885 2°59.554 73.4 11 72 8.6
2007-07-30 07:37:45 51°19.889 2°59.578 73.2 11.1 75 8.6
2007-07-30 07:37:49 51°19.893 2°59.596 73.8 10.8 71 8.7
2007-07-30 07:37:55 51°19.899 2°59.623 73.6 10.8 73 8.6
2007-07-30 07:38:00 51°19.903 2°59.646 73.3 11 71 8.7
2007-07-30 07:38:05 51°19.908 2°59.669 72.7 11 72 8.7
2007-07-30 07:38:09 51°19.912 2°59.687 72.5 10.8 67 9.1
2007-07-30 07:38:14 51°19.917 2°59.71 72.1 11 78 8.8
2007-07-30 07:38:20 51°19.924 2°59.736 72.5 10.7 65 8.7
2007-07-30 07:38:25 51°19.926 2°59.76 73.5 10.9 77 8.7
2007-07-30 07:38:30 51°19.932 2°59.783 73.8 11 72 8.6
2007-07-30 07:38:34 51°19.935 2°59.802 74.8 10.9 71 8.7
2007-07-30 07:38:40 51°19.941 2°59.829 73.7 10.7 73 9
2007-07-30 07:38:45 51°19.946 2°59.851 73.1 10.7 70 8.7
2007-07-30 07:38:50 51°19.951 2°59.874 72.9 10.8 69 8.8
2007-07-30 07:38:55 51°19.955 2°59.897 72.2 11 73 8.6
2007-07-30 07:39:00 51°19.96 2°59.92 72.7 11.1 72 8.5
2007-07-30 07:39:05 51°19.966 2°59.943 73.1 10.9 69 8.5
2007-07-30 07:39:10 51°19.97 2°59.965 71.8 10.7 71 8.6
2007-07-30 07:39:14 51°19.973 2°59.984 73.4 10.9 75 8.6
2007-07-30 07:39:20 51°19.98 3°0.011 73.3 10.9 68 8.6
2007-07-30 07:39:25 51°19.984 3°0.034 71.9 10.9 76 8.4
2007-07-30 07:39:30 51°19.99 3°0.057 74.3 11.1 69 8.5
2007-07-30 07:39:34 51°19.992 3°0.077 74.2 11.2 74 8.8
2007-07-30 07:39:40 51°19.999 3°0.103 72.7 10.8 71 8.6
2007-07-30 07:39:45 51°20.002 3°0.127 74.7 10.9 74 8.6
2007-07-30 07:39:50 51°20.008 3°0.149 73.3 10.9 70 8.6
2007-07-30 07:39:55 51°20.012 3°0.173 73.5 11.1 74 8.6
2007-07-30 07:40:00 51°20.017 3°0.196 74.2 11.1 70 8.7
2007-07-30 07:40:05 51°20.021 3°0.22 74.1 11.1 75 8.7
2007-07-30 07:40:09 51°20.026 3°0.237 72.9 11 68 8.5
2007-07-30 07:40:15 51°20.031 3°0.265 72.4 10.9 73 8.4
2007-07-30 07:40:20 51°20.037 3°0.288 72.3 10.9 69 8.3
2007-07-30 07:40:25 51°20.041 3°0.312 72.2 11 73 8.5
2007-07-30 07:40:29 51°20.045 3°0.33 73.7 11 72 8.6
2007-07-30 07:40:34 51°20.049 3°0.353 73.1 11.1 72 8.6
2007-07-30 07:40:40 51°20.055 3°0.382 74.3 11.2 75 8.4
2007-07-30 07:40:45 51°20.06 3°0.405 74 11 69 8.5
2007-07-30 07:40:50 51°20.064 3°0.428 73.1 10.9 73 8.5
2007-07-30 07:40:55 51°20.07 3°0.451 72.8 11.1 69 8.6
2007-07-30 07:41:00 51°20.074 3°0.474 72 11.1 73 8.4
2007-07-30 07:41:05 51°20.08 3°0.497 72.1 11.1 70 8.3
2007-07-30 07:41:10 51°20.085 3°0.52 72.1 11.1 70 8.4
2007-07-30 07:41:14 51°20.089 3°0.539 72.5 11 70 8.5
2007-07-30 07:41:20 51°20.095 3°0.566 71.9 11.1 72 8.3
2007-07-30 07:41:25 51°20.1 3°0.589 73.1 11 69 8.2
2007-07-30 07:41:30 51°20.104 3°0.613 71.8 11.1 75 8.2
2007-07-30 07:41:34 51°20.109 3°0.631 73.3 11.1 67 8.3
2007-07-30 07:41:40 51°20.114 3°0.66 72.5 11.2 75 8.5
2007-07-30 07:41:45 51°20.12 3°0.683 72.9 11.1 69 8.6
2007-07-30 07:41:50 51°20.124 3°0.707 74.3 11.3 74 8.7
2007-07-30 07:41:54 51°20.129 3°0.725 72.6 11.2 69 8.8
2007-07-30 07:42:00 51°20.134 3°0.753 72.4 11 74 8.7
2007-07-30 07:42:05 51°20.138 3°0.777 74.6 11.3 73 8.5
2007-07-30 07:42:10 51°20.144 3°0.8 72.7 11.3 67 8.3
2007-07-30 07:42:15 51°20.148 3°0.824 72.3 11 73 8.3
2007-07-30 07:42:20 51°20.153 3°0.847 73.3 11.1 74 8.4
2007-07-30 07:42:25 51°20.158 3°0.87 73.2 11.1 70 8.3
2007-07-30 07:42:29 51°20.162 3°0.889 72.7 11.2 73 8.6
2007-07-30 07:42:35 51°20.168 3°0.917 72.5 11 69 8.6
2007-07-30 07:42:40 51°20.172 3°0.941 73.7 11.3 73 8.5
2007-07-30 07:42:45 51°20.178 3°0.964 72.1 11.2 68 8.4
2007-07-30 07:42:49 51°20.181 3°0.983 72.4 11 73 8.3
2007-07-30 07:42:54 51°20.187 3°1.006 73.6 10.9 69 8.1
2007-07-30 07:43:00 51°20.192 3°1.034 72.2 11.2 74 8.4
2007-07-30 07:43:05 51°20.198 3°1.057 73.3 11.2 67 8.4
2007-07-30 07:43:10 51°20.203 3°1.08 70.9 11.3 72 8.5
2007-07-30 07:43:15 51°20.208 3°1.104 71.2 11.2 70 8.6
2007-07-30 07:43:20 51°20.213 3°1.127 72.3 11.3 72 8.9
2007-07-30 07:43:25 51°20.219 3°1.15 72.1 11.1 69 8.5
2007-07-30 07:43:30 51°20.223 3°1.174 72.3 11.1 71 8.1
2007-07-30 07:43:34 51°20.228 3°1.192 70.8 11 71 8.5
2007-07-30 07:43:40 51°20.233 3°1.221 73.3 11.3 74 8.3
2007-07-30 07:43:45 51°20.239 3°1.244 72.5 11.3 68 8.4
2007-07-30 07:43:50 51°20.243 3°1.268 73.1 11.3 73 8.5
2007-07-30 07:43:54 51°20.249 3°1.285 71.1 11.1 66 8.6
2007-07-30 07:44:00 51°20.254 3°1.313 71.5 11.1 74 8.5
2007-07-30 07:44:05 51°20.261 3°1.336 71.4 11.2 66 8.7
2007-07-30 07:44:10 51°20.265 3°1.36 70.7 11.2 73 8.6
2007-07-30 07:44:15 51°20.272 3°1.382 71.3 11.1 66 8.5
2007-07-30 07:44:20 51°20.275 3°1.406 71.5 11.2 75 8.5
2007-07-30 07:44:25 51°20.282 3°1.428 72.7 11.1 66 8.4
2007-07-30 07:44:29 51°20.284 3°1.448 74 11.1 74 8.4
2007-07-30 07:44:35 51°20.29 3°1.476 73.8 11 71 8.4
2007-07-30 07:44:40 51°20.294 3°1.499 73.2 11 74 8.4
2007-07-30 07:44:45 51°20.299 3°1.522 73.9 11.1 72 8.2
2007-07-30 07:44:49 51°20.303 3°1.541 74.2 11.2 69 8.2
2007-07-30 07:44:55 51°20.309 3°1.569 72.6 11.1 71 8.1
2007-07-30 07:45:00 51°20.314 3°1.592 72.8 11 70 8.1
2007-07-30 07:45:05 51°20.32 3°1.615 72.6 11 71 8
2007-07-30 07:45:10 51°20.325 3°1.638 71.8 11.1 71 8.3
2007-07-30 07:45:14 51°20.329 3°1.657 73 11.2 72 8.2
2007-07-30 07:45:20 51°20.335 3°1.685 72.1 11.2 70 8.4
2007-07-30 07:45:25 51°20.34 3°1.709 72.1 11.2 72 8.5
2007-07-30 07:45:30 51°20.346 3°1.732 73 11.1 68 8.7
2007-07-30 07:45:34 51°20.349 3°1.75 72.2 11.1 72 8.6
2007-07-30 07:45:40 51°20.355 3°1.779 72.7 11.3 71 8.7
2007-07-30 07:45:45 51°20.361 3°1.802 72.2 11.2 70 8.5
2007-07-30 07:45:50 51°20.366 3°1.825 72.3 11.3 70 8.5
2007-07-30 07:45:54 51°20.37 3°1.844 72.5 11.3 70 8.7
2007-07-30 07:46:00 51°20.377 3°1.872 71.9 11.3 69 8.7
2007-07-30 07:46:05 51°20.383 3°1.896 71.8 11.2 69 8.6
2007-07-30 07:46:10 51°20.388 3°1.919 71.2 11.3 73 8.6
2007-07-30 07:46:14 51°20.392 3°1.938 72.5 11.4 68 8.5
2007-07-30 07:46:20 51°20.399 3°1.966 70 11.2 71 8.3
2007-07-30 07:46:25 51°20.404 3°1.989 71.1 11.1 70 8
2007-07-30 07:46:30 51°20.408 3°2.013 73.5 11.3 74 8
2007-07-30 07:46:35 51°20.414 3°2.036 73.4 11.1 69 8
2007-07-30 07:46:40 51°20.418 3°2.06 72.2 11.2 75 8.2
2007-07-30 07:46:45 51°20.423 3°2.083 72.5 11.2 72 8.1
2007-07-30 07:46:49 51°20.427 3°2.102 73 11.2 72 8.4
2007-07-30 07:46:55 51°20.433 3°2.131 73.6 11.6 72 8.5
2007-07-30 07:47:00 51°20.438 3°2.155 71.8 11.2 71 8.6
2007-07-30 07:47:05 51°20.442 3°2.179 73.7 11.2 75 8.5
2007-07-30 07:47:09 51°20.447 3°2.198 74.6 11.5 69 8.5
2007-07-30 07:47:14 51°20.452 3°2.221 71.8 11.3 70 8.5
2007-07-30 07:47:20 51°20.459 3°2.25 72.5 11.2 69 8.7
2007-07-30 07:47:25 51°20.463 3°2.273 72.3 11.1 72 8.5
2007-07-30 07:47:30 51°20.468 3°2.297 72.4 11.2 72 8.3
2007-07-30 07:47:35 51°20.474 3°2.32 71.5 11.3 68 8.6
2007-07-30 07:47:40 51°20.479 3°2.344 71.7 11.2 72 8.2
2007-07-30 07:47:45 51°20.484 3°2.367 72 11.3 69 8.4
2007-07-30 07:47:50 51°20.489 3°2.391 71.7 11.4 74 8.7
2007-07-30 07:47:54 51°20.493 3°2.41 72.4 11.2 72 8.4
2007-07-30 07:48:00 51°20.498 3°2.439 73.3 11.3 74 8.4
2007-07-30 07:48:05 51°20.504 3°2.462 73.2 11.4 71 8.5
2007-07-30 07:48:10 51°20.508 3°2.486 72.5 11.3 71 8.5
2007-07-30 07:48:14 51°20.513 3°2.505 72.4 11.2 70 8.4
2007-07-30 07:48:20 51°20.519 3°2.533 72.9 11.4 71 8.6
2007-07-30 07:48:25 51°20.525 3°2.556 71.2 11.3 67 8.5
2007-07-30 07:48:30 51°20.529 3°2.58 70.4 11.1 72 8.4
2007-07-30 07:48:34 51°20.534 3°2.598 71.3 11.3 70 8.3
2007-07-30 07:48:40 51°20.541 3°2.627 70.9 11.3 68 8.5
2007-07-30 07:48:45 51°20.545 3°2.651 71.6 11.1 76 8.5
2007-07-30 07:48:50 51°20.55 3°2.674 74.4 11.2 69 8.3
2007-07-30 07:48:55 51°20.555 3°2.698 72.5 11.3 73 8.5
2007-07-30 07:49:00 51°20.56 3°2.722 72.9 11.3 71 8.6
2007-07-30 07:49:05 51°20.565 3°2.745 72.8 11.1 71 8.9
2007-07-30 07:49:09 51°20.568 3°2.764 72.7 11.1 73 8.3
2007-07-30 07:49:15 51°20.574 3°2.792 73 11.3 70 8.3
2007-07-30 07:49:20 51°20.58 3°2.815 71 11.1 69 8.4
2007-07-30 07:49:25 51°20.584 3°2.838 70.6 11 71 8.6
2007-07-30 07:49:29 51°20.589 3°2.857 72.1 11 71 8.5
2007-07-30 07:49:34 51°20.594 3°2.88 71.1 11.1 69 8.6
2007-07-30 07:49:40 51°20.601 3°2.908 70.8 11.2 69 8.6
2007-07-30 07:49:45 51°20.606 3°2.931 70.9 11.2 69 8.6
2007-07-30 07:49:50 51°20.611 3°2.954 70.3 11.1 71 8.8
2007-07-30 07:49:55 51°20.617 3°2.976 70.9 10.9 69 8.9
2007-07-30 07:50:00 51°20.62 3°3.001 71.5 11.2 77 8.3
2007-07-30 07:50:05 51°20.627 3°3.022 71.5 11 64 8.5
2007-07-30 07:50:10 51°20.63 3°3.047 71.6 11.2 77 8.5
2007-07-30 07:50:14 51°20.636 3°3.065 72.9 11.2 65 8.7
2007-07-30 07:50:20 51°20.64 3°3.093 70.4 11 76 8.7
2007-07-30 07:50:25 51°20.646 3°3.115 72.8 11 67 8.6
2007-07-30 07:50:30 51°20.651 3°3.139 71.7 11 73 8.5
2007-07-30 07:50:34 51°20.655 3°3.157 71.8 11 69 8.6
2007-07-30 07:50:40 51°20.661 3°3.185 72.4 11.1 70 8.7
2007-07-30 07:50:45 51°20.666 3°3.208 71.2 11.1 71 8.8
2007-07-30 07:50:50 51°20.671 3°3.231 72.4 11.1 71 8.5
2007-07-30 07:50:55 51°20.676 3°3.254 71.5 11 70 8.4
2007-07-30 07:51:00 51°20.681 3°3.277 71.5 11.1 72 8.4
2007-07-30 07:51:05 51°20.687 3°3.3 71.4 11.2 67 8.8
2007-07-30 07:51:09 51°20.69 3°3.32 70.7 11.1 73 8.6
2007-07-30 07:51:15 51°20.697 3°3.347 71.5 11.1 69 8.6
2007-07-30 07:51:20 51°20.702 3°3.37 71.6 11.2 70 8.7
2007-07-30 07:51:25 51°20.707 3°3.393 70.4 11.1 70 8.7
2007-07-30 07:51:29 51°20.711 3°3.412 70.4 11.2 71 8.9
2007-07-30 07:51:35 51°20.718 3°3.44 70.8 11.2 70 8.8
2007-07-30 07:51:40 51°20.724 3°3.463 69.7 11.2 68 8.8
2007-07-30 07:51:45 51°20.728 3°3.486 70 11.2 72 8.6
2007-07-30 07:51:50 51°20.733 3°3.509 70.9 11 71 8.7
2007-07-30 07:51:54 51°20.737 3°3.528 71.9 11.1 73 8.6
2007-07-30 07:52:00 51°20.743 3°3.557 72 11.2 73 8.9
2007-07-30 07:52:05 51°20.747 3°3.58 72.5 11.1 74 8.7
2007-07-30 07:52:10 51°20.752 3°3.603 72.8 11.2 72 8.3
2007-07-30 07:52:14 51°20.756 3°3.622 72.2 11.3 71 8.4
2007-07-30 07:52:20 51°20.761 3°3.651 72.7 11.1 74 8.7
2007-07-30 07:52:25 51°20.765 3°3.675 73.7 11.2 76 8.6
2007-07-30 07:52:30 51°20.769 3°3.698 74.7 11.1 73 8.7
2007-07-30 07:52:34 51°20.771 3°3.718 75.4 11.6 83 8.6
2007-07-30 07:52:40 51°20.777 3°3.747 75.4 11.2 70 8.4
2007-07-30 07:52:45 51°20.78 3°3.771 74.6 11.3 79 8.3
2007-07-30 07:52:50 51°20.784 3°3.795 75.8 11.4 75 8.6
2007-07-30 07:52:54 51°20.787 3°3.815 75.7 11.3 79 8.6
2007-07-30 07:53:00 51°20.792 3°3.843 76.8 11.1 72 8.6
2007-07-30 07:53:05 51°20.795 3°3.868 75.6 11.2 79 8.6
2007-07-30 07:53:10 51°20.8 3°3.891 75.2 11.1 70 8.9
2007-07-30 07:53:15 51°20.802 3°3.915 74.5 11.2 80 8.8
2007-07-30 07:53:20 51°20.807 3°3.939 76.3 11.2 72 8.8
2007-07-30 07:53:25 51°20.81 3°3.963 74.4 11.2 80 8.7
2007-07-30 07:53:29 51°20.812 3°3.983 78 11.1 75 8.9
2007-07-30 07:53:35 51°20.816 3°4.012 77.9 11.2 82 8.7
2007-07-30 07:53:40 51°20.82 3°4.036 78 11.3 74 8.6
2007-07-30 07:53:45 51°20.823 3°4.06 77.2 11 77 8.7
2007-07-30 07:53:49 51°20.826 3°4.079 77.1 11.2 79 8.5
2007-07-30 07:53:54 51°20.831 3°4.103 75.6 11.3 71 8.7
2007-07-30 07:54:00 51°20.835 3°4.132 74.9 11.4 79 8.7
2007-07-30 07:54:05 51°20.84 3°4.156 75.4 11.3 71 8.5
2007-07-30 07:54:10 51°20.844 3°4.18 73.3 11.3 77 8.7
2007-07-30 07:54:15 51°20.847 3°4.205 76.2 11.5 76 8.7
2007-07-30 07:54:20 51°20.853 3°4.228 73.3 11.1 71 8.6
2007-07-30 07:54:25 51°20.856 3°4.252 74.7 11 76 8.6
2007-07-30 07:54:30 51°20.86 3°4.275 74.4 11.2 74 8.4
2007-07-30 07:54:34 51°20.864 3°4.295 73.8 11.4 76 8.5
2007-07-30 07:54:40 51°20.869 3°4.324 74.7 11.2 74 8.4
2007-07-30 07:54:45 51°20.872 3°4.348 76.2 11.1 76 8.5
2007-07-30 07:54:50 51°20.877 3°4.371 74.5 11.1 73 8.6
2007-07-30 07:54:54 51°20.879 3°4.391 75.3 11.3 78 8.7
2007-07-30 07:55:00 51°20.883 3°4.42 76 11.4 78 8.7
2007-07-30 07:55:05 51°20.887 3°4.444 76.9 11.3 76 8.6
2007-07-30 07:55:10 51°20.891 3°4.469 77.1 11.2 75 8.7
2007-07-30 07:55:14 51°20.893 3°4.488 76.4 11.3 78 8.6
2007-07-30 07:55:20 51°20.898 3°4.517 75.7 11.2 76 8.9
2007-07-30 07:55:25 51°20.901 3°4.541 75.6 11.2 77 8.6
2007-07-30 07:55:30 51°20.906 3°4.564 76 11.1 73 8.5
2007-07-30 07:55:35 51°20.908 3°4.59 76.8 11.4 81 8.3
2007-07-30 07:55:40 51°20.913 3°4.613 76.2 11.4 71 8.3
2007-07-30 07:55:45 51°20.916 3°4.637 75.1 11.1 79 8.5
2007-07-30 07:55:49 51°20.919 3°4.656 76.5 11 76 8.5
2007-07-30 07:55:54 51°20.922 3°4.681 77.9 11.3 77 8.7
2007-07-30 07:56:00 51°20.928 3°4.709 75.3 11.2 73 8.9
2007-07-30 07:56:05 51°20.93 3°4.734 76.1 11.2 80 8.6
2007-07-30 07:56:10 51°20.935 3°4.758 77.1 11 75 8.6
2007-07-30 07:56:15 51°20.938 3°4.782 77 11.1 77 8.4
2007-07-30 07:56:20 51°20.941 3°4.806 77.3 11.3 75 8.6
2007-07-30 07:56:25 51°20.945 3°4.831 75.4 11.3 80 8.4
2007-07-30 07:56:29 51°20.948 3°4.851 77.9 11.4 73 8.5
2007-07-30 07:56:34 51°20.951 3°4.875 76.8 11.3 80 8.6
2007-07-30 07:56:40 51°20.956 3°4.904 77.1 11.2 75 8.4
2007-07-30 07:56:45 51°20.959 3°4.929 77.6 11.4 78 8.4
2007-07-30 07:56:50 51°20.963 3°4.953 76.8 11.3 77 8.7
2007-07-30 07:56:54 51°20.965 3°4.973 77.6 11.4 79 8.9
2007-07-30 07:57:00 51°20.971 3°5.001 76.6 11.3 73 8.6
2007-07-30 07:57:05 51°20.973 3°5.027 77 11.6 76 8.6
2007-07-30 07:57:10 51°20.978 3°5.051 75.5 11.3 76 8.7
2007-07-30 07:57:14 51°20.98 3°5.07 76.4 11 76 8.8
2007-07-30 07:57:20 51°20.984 3°5.099 78 11.4 79 8.7
2007-07-30 07:57:25 51°20.989 3°5.123 76.5 11.5 72 8.7
2007-07-30 07:57:30 51°20.991 3°5.148 76.2 11.5 82 8.6
2007-07-30 07:57:34 51°20.996 3°5.167 76.2 11.1 73 8.6
2007-07-30 07:57:40 51°20.999 3°5.196 76.4 11.1 77 8.6
2007-07-30 07:57:45 51°21.002 3°5.22 76.3 11.3 79 8.4
2007-07-30 07:57:50 51°21.006 3°5.244 75.5 11.1 77 8.4
2007-07-30 07:57:55 51°21.009 3°5.268 77.4 11.1 81 8.1
2007-07-30 07:58:00 51°21.013 3°5.292 78 11.2 76 8.3
2007-07-30 07:58:05 51°21.015 3°5.317 78.1 11.2 78 8.5
2007-07-30 07:58:09 51°21.019 3°5.336 76.2 11.1 78 8.5
2007-07-30 07:58:14 51°21.022 3°5.36 77.4 11.1 75 8.7
2007-07-30 07:58:20 51°21.026 3°5.389 76.7 11.3 78 8.7
2007-07-30 07:58:25 51°21.031 3°5.413 76.3 11.1 74 8.8
2007-07-30 07:58:30 51°21.033 3°5.438 76.7 11.2 78 8.8
2007-07-30 07:58:34 51°21.036 3°5.457 77.1 11.4 77 8.7
2007-07-30 07:58:40 51°21.042 3°5.486 75.1 11.2 75 8.8
2007-07-30 07:58:45 51°21.045 3°5.51 75.1 11.1 77 8.7
2007-07-30 07:58:49 51°21.048 3°5.529 76.3 11.3 77 8.8
2007-07-30 07:58:54 51°21.051 3°5.553 77.3 11.4 77 8.7
2007-07-30 07:58:59 51°21.055 3°5.578 76.7 11.3 76 8.6
2007-07-30 07:59:05 51°21.059 3°5.607 76.7 11.3 80 8.5
2007-07-30 07:59:10 51°21.063 3°5.631 78 11.3 73 8.6
2007-07-30 07:59:14 51°21.066 3°5.65 75.2 11.1 77 8.7
2007-07-30 07:59:20 51°21.07 3°5.679 77.2 11.2 77 8.7
2007-07-30 07:59:25 51°21.073 3°5.704 76.3 11.3 78 8.6
2007-07-30 07:59:30 51°21.077 3°5.728 77 11.3 78 9.1
2007-07-30 07:59:34 51°21.079 3°5.748 78.2 11.2 78 8.8
2007-07-30 07:59:40 51°21.085 3°5.775 76.1 11 72 8.8
2007-07-30 07:59:45 51°21.087 3°5.8 76.6 11.3 78 8.9
2007-07-30 07:59:50 51°21.093 3°5.823 74.3 11 70 8.7
2007-07-30 07:59:54 51°21.095 3°5.842 74.6 11.1 78 8.6
2007-07-30 08:00:00 51°21.102 3°5.87 73.9 11.1 69 8.7
2007-07-30 08:00:05 51°21.104 3°5.894 74.5 11.2 78 8.6
2007-07-30 08:00:10 51°21.109 3°5.918 74.4 11.2 73 8.9
2007-07-30 08:00:15 51°21.114 3°5.941 74 11.1 74 8.7
2007-07-30 08:00:20 51°21.118 3°5.965 74.7 11.2 72 8.7
2007-07-30 08:00:25 51°21.122 3°5.989 73.1 11.2 73 9
2007-07-30 08:00:29 51°21.125 3°6.008 73.5 11.1 77 8.9
2007-07-30 08:00:34 51°21.13 3°6.032 74.9 11.1 71 8.7
2007-07-30 08:00:40 51°21.135 3°6.061 74.4 11.3 76 8.9
2007-07-30 08:00:45 51°21.14 3°6.084 73.5 11.1 73 8.9
2007-07-30 08:00:50 51°21.144 3°6.108 73.2 11.3 76 8.6
2007-07-30 08:00:54 51°21.147 3°6.128 74.7 11.3 72 8.7
2007-07-30 08:01:00 51°21.152 3°6.156 72.8 11 76 8.7
2007-07-30 08:01:05 51°21.156 3°6.18 76.9 11.2 74 8.7
2007-07-30 08:01:09 51°21.16 3°6.199 73.7 11.3 73 8.7
2007-07-30 08:01:14 51°21.164 3°6.223 73.4 11.3 70 9
2007-07-30 08:01:20 51°21.17 3°6.252 72.5 11.4 76 8.7
2007-07-30 08:01:25 51°21.174 3°6.276 73.6 11.3 72 8.9
2007-07-30 08:01:30 51°21.178 3°6.3 74.6 11.3 77 8.6
2007-07-30 08:01:34 51°21.182 3°6.319 75.2 11.3 72 8.7
2007-07-30 08:01:40 51°21.186 3°6.348 73.7 11.3 75 8.9
2007-07-30 08:01:45 51°21.191 3°6.372 73.9 11.3 72 8.9
2007-07-30 08:01:50 51°21.195 3°6.396 73.4 11.3 78 8.7
2007-07-30 08:01:54 51°21.199 3°6.415 74.1 11.3 72 8.7
2007-07-30 08:02:00 51°21.204 3°6.444 73.5 11.2 74 8.9
2007-07-30 08:02:05 51°21.207 3°6.468 74.3 11.2 79 8.7
2007-07-30 08:02:10 51°21.212 3°6.492 75.6 11.3 73 8.9
2007-07-30 08:02:15 51°21.213 3°6.518 77.9 11.4 84 8.9
2007-07-30 08:02:20 51°21.217 3°6.542 78.8 11.1 77 8.9
2007-07-30 08:02:25 51°21.218 3°6.567 79.4 11.2 85 8.9
2007-07-30 08:02:30 51°21.221 3°6.592 82.4 11.5 79 8.8
2007-07-30 08:02:35 51°21.223 3°6.617 79.8 11.4 81 9
2007-07-30 08:02:40 51°21.225 3°6.642 80.5 11.2 85 8.9
2007-07-30 08:02:45 51°21.227 3°6.667 82.5 11.3 82 8.8
2007-07-30 08:02:50 51°21.229 3°6.692 82 11.5 83 8.9
2007-07-30 08:02:55 51°21.231 3°6.717 81.9 11.5 83 8.8
2007-07-30 08:03:00 51°21.233 3°6.742 82.7 11.4 83 8.9
2007-07-30 08:03:05 51°21.235 3°6.766 82 11.2 80 9
2007-07-30 08:03:10 51°21.236 3°6.792 81.8 11.5 88 8.7
2007-07-30 08:03:14 51°21.239 3°6.812 81.9 11.6 76 8.6
2007-07-30 08:03:20 51°21.241 3°6.842 80 11.4 85 8.6
2007-07-30 08:03:25 51°21.245 3°6.866 81.3 11.3 79 8.7
2007-07-30 08:03:29 51°21.245 3°6.887 81.4 11.5 85 8.8
2007-07-30 08:03:34 51°21.249 3°6.911 81.4 11.3 81 8.7
2007-07-30 08:03:40 51°21.25 3°6.942 82.1 11.4 82 8.8
2007-07-30 08:03:45 51°21.253 3°6.966 81.7 11.4 80 8.7
2007-07-30 08:03:50 51°21.258 3°6.99 78.9 11.3 75 8.8
2007-07-30 08:03:55 51°21.262 3°7.015 76.1 11.3 74 8.7
2007-07-30 08:04:00 51°21.266 3°7.038 73.8 11.3 73 8.6
2007-07-30 08:04:05 51°21.272 3°7.062 73.2 11.3 70 8.7
2007-07-30 08:04:10 51°21.277 3°7.085 71.1 11.3 67 8.8
2007-07-30 08:04:14 51°21.282 3°7.104 69.4 11.3 69 9
2007-07-30 08:04:20 51°21.289 3°7.132 69.6 11.3 67 8.8
2007-07-30 08:04:25 51°21.295 3°7.155 69.3 11.4 69 8.5
2007-07-30 08:04:30 51°21.301 3°7.178 68.3 11.3 66 8.6
2007-07-30 08:04:35 51°21.308 3°7.2 67.8 11.2 65 8.8
2007-07-30 08:04:40 51°21.314 3°7.223 66.7 11.2 66 8.8
2007-07-30 08:04:45 51°21.32 3°7.246 67.9 11.5 69 9
2007-07-30 08:04:49 51°21.326 3°7.263 66.4 11.1 62 8.9
2007-07-30 08:04:55 51°21.333 3°7.291 66.2 11.1 69 8.7
2007-07-30 08:05:00 51°21.341 3°7.313 67.6 11.2 62 8.9
2007-07-30 08:05:05 51°21.347 3°7.335 65.5 11.3 67 8.8
2007-07-30 08:05:10 51°21.354 3°7.358 66.3 11.2 64 9
2007-07-30 08:05:15 51°21.36 3°7.38 67.2 11.3 65 8.8
2007-07-30 08:05:20 51°21.366 3°7.404 67.6 11.4 68 9
2007-07-30 08:05:25 51°21.371 3°7.427 68.2 11.3 72 8.6
2007-07-30 08:05:30 51°21.376 3°7.451 71.1 11.3 73 8.5
2007-07-30 08:05:34 51°21.378 3°7.471 75.4 11.3 79 8.7
2007-07-30 08:05:40 51°21.381 3°7.5 77.1 11.2 79 8.8
2007-07-30 08:05:45 51°21.384 3°7.525 79 11.3 82 9
2007-07-30 08:05:49 51°21.384 3°7.545 82.3 11.3 87 9.1
2007-07-30 08:05:54 51°21.385 3°7.57 84.8 11.4 86 9.1
2007-07-30 08:06:00 51°21.385 3°7.601 86.8 11.5 90 9.3
2007-07-30 08:06:05 51°21.386 3°7.626 88.2 11.4 87 9.1
2007-07-30 08:06:10 51°21.389 3°7.65 86.1 11.3 80 9.1
2007-07-30 08:06:15 51°21.39 3°7.675 82 11.2 85 9
2007-07-30 08:06:20 51°21.393 3°7.699 81.5 11.1 80 9
2007-07-30 08:06:25 51°21.396 3°7.724 81.2 11.3 75 8.9
2007-07-30 08:06:30 51°21.402 3°7.747 76 11.1 70 9.2
2007-07-30 08:06:34 51°21.406 3°7.765 71.5 10.9 71 9.1
2007-07-30 08:06:40 51°21.413 3°7.792 69.9 11.1 66 8.8
2007-07-30 08:06:45 51°21.419 3°7.815 68.6 11.1 67 9
2007-07-30 08:06:50 51°21.425 3°7.837 67.5 11.1 68 8.9
2007-07-30 08:06:55 51°21.432 3°7.859 68.4 11.2 62 8.9
2007-07-30 08:07:00 51°21.438 3°7.882 66.5 11.1 68 8.9
2007-07-30 08:07:05 51°21.444 3°7.904 66.7 11 64 8.7
2007-07-30 08:07:09 51°21.449 3°7.922 66.7 11.2 66 8.7
2007-07-30 08:07:15 51°21.458 3°7.948 65.4 11.1 62 8.8
2007-07-30 08:07:20 51°21.465 3°7.971 65.8 11.2 64 9
2007-07-30 08:07:25 51°21.472 3°7.992 65.3 11.3 61 9.1
2007-07-30 08:07:30 51°21.479 3°8.015 64.5 11.3 64 9.6
2007-07-30 08:07:35 51°21.485 3°8.038 66 11.3 67 9.4
2007-07-30 08:07:40 51°21.492 3°8.06 66.4 11.4 63 9.3
2007-07-30 08:07:45 51°21.499 3°8.083 66 11.2 64 9.4
2007-07-30 08:07:50 51°21.505 3°8.106 66.4 11.4 68 9.6
2007-07-30 08:07:54 51°21.51 3°8.124 67 11.3 64 9.6
2007-07-30 08:08:00 51°21.517 3°8.152 67.5 11.2 68 9.4
2007-07-30 08:08:05 51°21.524 3°8.175 68 11.2 67 9.5
2007-07-30 08:08:09 51°21.528 3°8.193 68.1 11.3 69 9.2
2007-07-30 08:08:14 51°21.535 3°8.216 68.2 11.2 65 9.1
2007-07-30 08:08:20 51°21.542 3°8.244 68.4 11.3 67 9.4
2007-07-30 08:08:25 51°21.548 3°8.267 67.9 11.3 69 9.5
2007-07-30 08:08:30 51°21.554 3°8.29 68.8 11.3 68 9.4
2007-07-30 08:08:35 51°21.56 3°8.313 68.7 11.3 67 9.5
2007-07-30 08:08:40 51°21.567 3°8.336 68 11.3 67 9.5
2007-07-30 08:08:45 51°21.573 3°8.36 68.6 11.4 67 9.4
2007-07-30 08:08:50 51°21.579 3°8.383 68.2 11.5 66 9.6
2007-07-30 08:08:54 51°21.584 3°8.401 67.6 11.3 68 9.6
2007-07-30 08:09:00 51°21.592 3°8.428 67.5 11.3 66 9.3
2007-07-30 08:09:05 51°21.598 3°8.451 67.4 11.3 65 9.5
2007-07-30 08:09:10 51°21.604 3°8.475 67.8 11.4 67 9.7
2007-07-30 08:09:15 51°21.611 3°8.498 68 11.3 66 9.7
2007-07-30 08:09:20 51°21.617 3°8.521 68.2 11.4 68 9.8
2007-07-30 08:09:25 51°21.624 3°8.544 67.9 11.3 66 9.6
2007-07-30 08:09:29 51°21.628 3°8.563 68.9 11.5 69 9.8
2007-07-30 08:09:35 51°21.637 3°8.59 68.1 11.4 64 9.9
2007-07-30 08:09:40 51°21.642 3°8.614 67.9 11.4 70 9.8
2007-07-30 08:09:45 51°21.648 3°8.636 68.6 11.2 66 9.6
2007-07-30 08:09:50 51°21.654 3°8.66 68.2 11.3 71 9.5
2007-07-30 08:09:55 51°21.661 3°8.682 69.1 11.4 64 9.4
2007-07-30 08:10:00 51°21.667 3°8.705 66.7 11.3 67 9.6
2007-07-30 08:10:05 51°21.673 3°8.728 67.6 11.2 66 9.7
2007-07-30 08:10:10 51°21.68 3°8.75 66.3 11.3 65 9.7
2007-07-30 08:10:14 51°21.685 3°8.768 66.6 11.2 65 10
2007-07-30 08:10:20 51°21.694 3°8.795 66 11.4 63 10.1
2007-07-30 08:10:25 51°21.701 3°8.817 64.5 11.3 63 10.2
2007-07-30 08:10:29 51°21.706 3°8.836 65.8 11.4 66 10.3
2007-07-30 08:10:34 51°21.713 3°8.858 66.4 11.4 60 10.6
2007-07-30 08:10:40 51°21.721 3°8.886 65.4 11.5 69 10.6
2007-07-30 08:10:45 51°21.729 3°8.908 66 11.5 59 10.5
2007-07-30 08:10:50 51°21.736 3°8.931 64 11.6 64 10.6
2007-07-30 08:10:55 51°21.743 3°8.954 64.9 11.5 65 10.6
2007-07-30 08:11:00 51°21.75 3°8.976 66 11.5 62 10.5
2007-07-30 08:11:05 51°21.757 3°8.999 64.5 11.4 63 10.7
2007-07-30 08:11:10 51°21.764 3°9.021 65.2 11.4 64 10.8
2007-07-30 08:11:14 51°21.771 3°9.039 64.9 11.4 63 10.5
2007-07-30 08:11:20 51°21.779 3°9.066 64.9 11.4 62 10.7
2007-07-30 08:11:25 51°21.787 3°9.088 64.3 11.4 62 10.8
2007-07-30 08:11:30 51°21.794 3°9.111 65 11.6 63 11
2007-07-30 08:11:35 51°21.801 3°9.134 64.4 11.6 63 11.4
2007-07-30 08:11:40 51°21.808 3°9.157 65.1 11.5 64 11
2007-07-30 08:11:45 51°21.816 3°9.179 65 11.5 62 11.2
2007-07-30 08:11:49 51°21.822 3°9.198 64.8 11.5 63 11.1
2007-07-30 08:11:55 51°21.831 3°9.224 64.4 11.5 62 11.2
2007-07-30 08:12:00 51°21.838 3°9.248 65.1 11.6 65 11.2
2007-07-30 08:12:05 51°21.846 3°9.27 64.7 11.4 61 11.3
2007-07-30 08:12:10 51°21.852 3°9.293 65.3 11.5 64 11.3
2007-07-30 08:12:15 51°21.86 3°9.315 65.6 11.5 62 11.1
2007-07-30 08:12:20 51°21.867 3°9.338 64.8 11.6 63 11.6
2007-07-30 08:12:25 51°21.875 3°9.361 65.4 11.5 63 11.6
2007-07-30 08:12:30 51°21.882 3°9.383 64.8 11.5 60 11.6
2007-07-30 08:12:34 51°21.887 3°9.403 65.5 11.6 64 11.7
2007-07-30 08:12:40 51°21.897 3°9.429 64.7 11.5 61 11.5
2007-07-30 08:12:45 51°21.903 3°9.453 65.5 11.5 64 11.8
2007-07-30 08:12:49 51°21.91 3°9.47 65 11.6 62 11.9
2007-07-30 08:12:54 51°21.917 3°9.494 65.1 11.6 64 12
2007-07-30 08:13:00 51°21.926 3°9.521 65.3 11.6 63 12.1
2007-07-30 08:13:05 51°21.932 3°9.545 66 11.7 65 12.2
2007-07-30 08:13:10 51°21.94 3°9.567 65.3 11.7 62 11.9
2007-07-30 08:13:15 51°21.947 3°9.591 64.8 11.7 64 12.1
2007-07-30 08:13:20 51°21.955 3°9.614 64.8 11.7 63 12.4
2007-07-30 08:13:25 51°21.962 3°9.637 64.8 11.7 62 12.2
2007-07-30 08:13:30 51°21.97 3°9.659 63.9 11.6 62 12.1
2007-07-30 08:13:34 51°21.975 3°9.678 65 11.7 62 12.2
2007-07-30 08:13:40 51°21.986 3°9.705 63.8 11.5 61 12.3
2007-07-30 08:13:45 51°21.992 3°9.728 64.9 11.6 64 12.2
2007-07-30 08:13:50 51°22 3°9.751 64.1 11.6 63 12.2
2007-07-30 08:13:55 51°22.007 3°9.774 65.6 11.7 64 12.4
2007-07-30 08:14:00 51°22.014 3°9.797 66.2 11.7 64 12.6
2007-07-30 08:14:05 51°22.021 3°9.821 66.4 11.7 65 12.7
2007-07-30 08:14:10 51°22.028 3°9.845 67.5 11.8 65 13.2
2007-07-30 08:14:15 51°22.035 3°9.868 66.7 11.7 67 13.1
2007-07-30 08:14:20 51°22.042 3°9.892 68.2 11.7 66 13.2
2007-07-30 08:14:25 51°22.048 3°9.916 68.1 11.8 66 13.4
2007-07-30 08:14:30 51°22.055 3°9.939 67.4 11.8 66 13.4
2007-07-30 08:14:35 51°22.062 3°9.963 67.8 11.8 64 12.8
2007-07-30 08:14:40 51°22.068 3°9.988 67.9 11.7 69 13.1
2007-07-30 08:14:45 51°22.074 3°10.011 68.8 11.7 65 12.8
2007-07-30 08:14:50 51°22.081 3°10.035 68.2 11.9 66 13
2007-07-30 08:14:54 51°22.087 3°10.054 67.4 11.8 64 13.4
2007-07-30 08:15:00 51°22.095 3°10.083 67.1 11.9 67 13.6
2007-07-30 08:15:05 51°22.102 3°10.106 67.2 11.8 65 14.1
2007-07-30 08:15:10 51°22.108 3°10.131 68.1 11.9 68 13.9
2007-07-30 08:15:14 51°22.114 3°10.149 67.6 11.8 63 14
2007-07-30 08:15:20 51°22.122 3°10.178 67.1 11.9 68 14
2007-07-30 08:15:25 51°22.129 3°10.201 66.9 11.9 63 14
2007-07-30 08:15:30 51°22.136 3°10.225 66.6 11.9 65 14.1
2007-07-30 08:15:35 51°22.143 3°10.249 66.8 11.9 64 14.3
2007-07-30 08:15:40 51°22.15 3°10.274 68.4 12 66 14.2
2007-07-30 08:15:45 51°22.157 3°10.297 67.5 12 65 14.2
2007-07-30 08:15:50 51°22.165 3°10.321 66.9 11.8 63 14.2
2007-07-30 08:15:54 51°22.17 3°10.34 66.9 12.1 65 14.2
2007-07-30 08:16:00 51°22.179 3°10.369 66.5 12.1 61 14.5
2007-07-30 08:16:05 51°22.186 3°10.393 66.1 12 66 14.6
2007-07-30 08:16:10 51°22.193 3°10.417 66.4 12 64 14.4
2007-07-30 08:16:15 51°22.2 3°10.44 67 11.9 65 14.8
2007-07-30 08:16:20 51°22.207 3°10.464 67 11.9 64 15.1
2007-07-30 08:16:25 51°22.214 3°10.488 66.8 11.8 66 14.9
2007-07-30 08:16:30 51°22.221 3°10.512 68.2 11.8 65 15.2
2007-07-30 08:16:35 51°22.228 3°10.536 67.7 11.9 67 15.3
2007-07-30 08:16:40 51°22.235 3°10.56 67.9 12.1 65 16.1
2007-07-30 08:16:45 51°22.242 3°10.584 67.6 12.2 65 17.9
2007-07-30 08:16:50 51°22.249 3°10.609 67.8 12.2 65 17.6
2007-07-30 08:16:55 51°22.256 3°10.633 67.2 12.3 64 17.3
2007-07-30 08:17:00 51°22.264 3°10.657 65.8 12.1 63 17.8
2007-07-30 08:17:05 51°22.271 3°10.682 67 12.3 66 17.5
2007-07-30 08:17:10 51°22.279 3°10.705 66 12.2 63 -999
2007-07-30 08:17:15 51°22.286 3°10.73 67.6 12.3 63 17.5
2007-07-30 08:17:20 51°22.294 3°10.754 66.6 12.4 63 17.8
2007-07-30 08:17:25 51°22.302 3°10.779 66.7 12.4 64 17.7
2007-07-30 08:17:30 51°22.31 3°10.803 66.1 12.4 61 17.4
2007-07-30 08:17:35 51°22.317 3°10.829 66 12.4 67 16.6
2007-07-30 08:17:40 51°22.325 3°10.853 67.8 12.4 61 16.6
2007-07-30 08:17:45 51°22.331 3°10.878 67.9 12.3 67 16.5
2007-07-30 08:17:50 51°22.339 3°10.902 68.5 12.4 62 16.1
2007-07-30 08:17:55 51°22.346 3°10.927 67.5 12.2 66 15.9
2007-07-30 08:18:00 51°22.353 3°10.952 68.5 12.3 64 15.8
2007-07-30 08:18:05 51°22.361 3°10.976 66.2 12.2 67 15.3
2007-07-30 08:18:10 51°22.368 3°11 68.5 12.2 64 14.9
2007-07-30 08:18:14 51°22.374 3°11.019 66.7 12 64 14.8
2007-07-30 08:18:20 51°22.382 3°11.049 67.5 12 65 15
2007-07-30 08:18:25 51°22.389 3°11.074 67.9 12.2 69 14.9
2007-07-30 08:18:30 51°22.397 3°11.097 68.2 12.1 62 14.8
2007-07-30 08:18:35 51°22.403 3°11.122 67.5 12 69 14.9
2007-07-30 08:18:40 51°22.411 3°11.146 69 12.2 63 15.1
2007-07-30 08:18:45 51°22.418 3°11.17 67.1 12.2 64 15.1
2007-07-30 08:18:49 51°22.424 3°11.19 67.2 12.2 65 15.2
2007-07-30 08:18:54 51°22.432 3°11.214 67.8 12.4 64 15.2
2007-07-30 08:19:00 51°22.44 3°11.243 67.9 12.2 62 15.4
2007-07-30 08:19:05 51°22.447 3°11.268 66.8 12.2 66 15.5
2007-07-30 08:19:10 51°22.455 3°11.293 66.9 12.6 62 15.3
2007-07-30 08:19:14 51°22.462 3°11.312 65.3 12.2 62 15.8
2007-07-30 08:19:20 51°22.47 3°11.341 67.1 12.1 65 15.2
2007-07-30 08:19:25 51°22.478 3°11.365 67.3 12.4 62 15.2
2007-07-30 08:19:29 51°22.485 3°11.385 65.5 12.1 65 15.1
2007-07-30 08:19:34 51°22.492 3°11.409 68 12.2 64 15
2007-07-30 08:19:40 51°22.501 3°11.438 67.5 12.3 63 14.8
2007-07-30 08:19:45 51°22.509 3°11.461 65.7 12 62 14.9
2007-07-30 08:19:50 51°22.515 3°11.486 67.9 12.1 65 14.9
2007-07-30 08:19:55 51°22.524 3°11.51 67 12.3 62 14.7
2007-07-30 08:20:00 51°22.531 3°11.533 66.2 11.9 62 14.8
2007-07-30 08:20:05 51°22.538 3°11.557 66.7 12 66 14.7
2007-07-30 08:20:10 51°22.545 3°11.582 67.1 12.3 64 14.7
2007-07-30 08:20:15 51°22.553 3°11.605 67 12 63 14.5
2007-07-30 08:20:20 51°22.56 3°11.629 66.8 11.9 63 14.5
2007-07-30 08:20:25 51°22.567 3°11.653 68.4 12 64 14.5
2007-07-30 08:20:30 51°22.576 3°11.675 64.3 11.8 60 14.3
2007-07-30 08:20:34 51°22.581 3°11.695 66.7 11.9 66 14.3
2007-07-30 08:20:40 51°22.591 3°11.722 67.2 11.9 60 14.2
2007-07-30 08:20:45 51°22.597 3°11.746 66.7 11.8 68 14.3
2007-07-30 08:20:50 51°22.605 3°11.769 68.2 11.7 62 14.2
2007-07-30 08:20:55 51°22.611 3°11.793 67.8 11.9 66 14.2
2007-07-30 08:21:00 51°22.619 3°11.816 67.7 11.8 63 14
2007-07-30 08:21:05 51°22.626 3°11.839 68.1 11.5 65 14
2007-07-30 08:21:09 51°22.631 3°11.858 68.7 11.7 65 14
2007-07-30 08:21:15 51°22.64 3°11.886 68.7 11.8 64 13.8
2007-07-30 08:21:20 51°22.647 3°11.909 67.9 11.6 66 13.5
2007-07-30 08:21:25 51°22.653 3°11.932 70 11.6 64 13.4
2007-07-30 08:21:30 51°22.66 3°11.956 67.6 11.7 67 13.5
2007-07-30 08:21:34 51°22.665 3°11.975 69.1 11.8 63 13.5
2007-07-30 08:21:40 51°22.674 3°12.003 68.1 11.5 67 13.4
2007-07-30 08:21:45 51°22.68 3°12.026 70.1 11.8 64 13.5
2007-07-30 08:21:50 51°22.688 3°12.05 67.7 11.7 64 13.5
2007-07-30 08:21:54 51°22.693 3°12.068 68 11.5 64 13.5
2007-07-30 08:22:00 51°22.7 3°12.096 69 11.5 67 13
2007-07-30 08:22:05 51°22.707 3°12.12 69.8 11.7 67 12.7
2007-07-30 08:22:10 51°22.714 3°12.143 68.7 11.5 63 12.9
2007-07-30 08:22:15 51°22.719 3°12.167 68.4 11.6 68 13
2007-07-30 08:22:20 51°22.727 3°12.189 68.1 11.4 63 12.8
2007-07-30 08:22:25 51°22.733 3°12.213 69.5 11.6 69 12.9
2007-07-30 08:22:30 51°22.74 3°12.236 70.2 11.7 63 13
2007-07-30 08:22:35 51°22.746 3°12.26 68.5 11.4 67 13
2007-07-30 08:22:40 51°22.754 3°12.282 68.9 11.4 63 12.8
2007-07-30 08:22:45 51°22.76 3°12.306 69.5 11.7 66 13.2
2007-07-30 08:22:50 51°22.767 3°12.33 68.2 11.7 65 13